createdAt,value
2023-04-24T00:01:02.243Z,100438.75
2023-04-24T00:03:30.466Z,100437.25
2023-04-24T00:06:00.153Z,100425.84
2023-04-24T00:08:28.252Z,100430.97
2023-04-24T00:10:56.235Z,100436.31
2023-04-24T00:13:25.995Z,100429.75
2023-04-24T00:15:54.531Z,100427.91
2023-04-24T00:18:22.651Z,100420.81
2023-04-24T00:20:50.580Z,100408.50
2023-04-24T00:23:18.554Z,100421.19
2023-04-24T00:25:46.494Z,100424.81
2023-04-24T00:28:14.456Z,100416.09
2023-04-24T00:30:43.802Z,100418.34
2023-04-24T00:33:11.694Z,100413.63
2023-04-24T00:35:39.594Z,100410.84
2023-04-24T00:38:07.536Z,100405.00
2023-04-24T00:40:35.652Z,100417.97
2023-04-24T00:43:03.617Z,100412.78
2023-04-24T00:45:32.362Z,100414.06
2023-04-24T00:48:02.877Z,100410.63
2023-04-24T00:50:31.567Z,100408.50
2023-04-24T00:52:59.622Z,100401.66
2023-04-24T00:55:28.119Z,100407.94
2023-04-24T00:57:56.393Z,100403.31
2023-04-24T01:00:24.838Z,100402.75
2023-04-24T01:02:55.434Z,100398.13
2023-04-24T01:05:24.986Z,100399.81
2023-04-24T01:07:52.950Z,100402.41
2023-04-24T01:10:21.491Z,100396.09
2023-04-24T01:12:49.391Z,100397.47
2023-04-24T01:15:17.565Z,100391.84
2023-04-24T01:17:46.234Z,100391.63
2023-04-24T01:20:15.526Z,100387.28
2023-04-24T01:22:45.061Z,100389.88
2023-04-24T01:25:12.987Z,100384.97
2023-04-24T01:27:41.047Z,100383.66
2023-04-24T01:30:10.690Z,100375.16
2023-04-24T01:32:39.885Z,100379.97
2023-04-24T01:35:09.481Z,100377.53
2023-04-24T01:37:38.397Z,100375.69
2023-04-24T01:40:09.472Z,100372.19
2023-04-24T01:42:37.905Z,100380.25
2023-04-24T01:45:07.460Z,100375.53
2023-04-24T01:47:35.433Z,100376.25
2023-04-24T01:50:03.396Z,100367.28
2023-04-24T01:52:32.312Z,100366.16
2023-04-24T01:55:02.163Z,100363.28
2023-04-24T01:57:32.508Z,100352.91
2023-04-24T02:00:00.650Z,100355.75
2023-04-24T02:02:29.974Z,100356.16
2023-04-24T02:04:58.099Z,100352.91
2023-04-24T02:07:26.145Z,100347.53
2023-04-24T02:09:54.110Z,100355.22
2023-04-24T02:12:22.032Z,100359.03
2023-04-24T02:14:51.359Z,100350.50
2023-04-24T02:17:20.299Z,100349.66
2023-04-24T02:19:48.247Z,100350.09
2023-04-24T02:22:16.236Z,100337.94
2023-04-24T02:24:44.178Z,100340.63
2023-04-24T02:27:12.550Z,100338.50
2023-04-24T02:29:40.694Z,100328.22
2023-04-24T02:32:12.998Z,100328.00
2023-04-24T02:34:41.103Z,100336.81
2023-04-24T02:37:09.064Z,100325.31
2023-04-24T02:39:37.009Z,100315.94
2023-04-24T02:42:05.077Z,100330.03
2023-04-24T02:44:32.993Z,100324.84
2023-04-24T02:47:01.083Z,100322.81
2023-04-24T02:49:30.375Z,100324.69
2023-04-24T02:51:58.264Z,100325.31
2023-04-24T02:54:26.354Z,100315.09
2023-04-24T02:56:54.268Z,100321.66
2023-04-24T02:59:22.168Z,100339.66
2023-04-24T03:01:50.118Z,100335.47
2023-04-24T03:04:21.573Z,100335.38
2023-04-24T03:06:52.823Z,100329.22
2023-04-24T03:09:20.754Z,100337.59
2023-04-24T03:11:49.650Z,100333.47
2023-04-24T03:14:17.702Z,100338.28
2023-04-24T03:16:45.768Z,100334.38
2023-04-24T03:19:13.791Z,100340.97
2023-04-24T03:21:42.131Z,100337.31
2023-04-24T03:24:11.540Z,100341.19
2023-04-24T03:26:39.459Z,100337.28
2023-04-24T03:29:07.387Z,100339.97
2023-04-24T03:31:35.428Z,100331.66
2023-04-24T03:34:03.407Z,100324.84
2023-04-24T03:36:31.613Z,100328.00
2023-04-24T03:38:59.526Z,100333.75
2023-04-24T03:41:28.810Z,100334.63
2023-04-24T03:43:56.980Z,100342.47
2023-04-24T03:46:25.131Z,100345.28
2023-04-24T03:48:53.090Z,100347.34
2023-04-24T03:51:21.021Z,100350.47
2023-04-24T03:53:48.910Z,100345.66
2023-04-24T03:56:16.848Z,100345.50
2023-04-24T03:58:46.169Z,100340.78
2023-04-24T04:01:14.338Z,100336.59
2023-04-24T04:03:42.386Z,100351.81
2023-04-24T04:06:12.191Z,100350.88
2023-04-24T04:08:40.112Z,100357.78
2023-04-24T04:11:08.067Z,100356.16
2023-04-24T04:13:35.968Z,100360.31
2023-04-24T04:16:05.409Z,100358.19
2023-04-24T04:18:33.344Z,100348.53
2023-04-24T04:21:02.406Z,100358.28
2023-04-24T04:23:30.770Z,100356.00
2023-04-24T04:25:58.717Z,100353.38
2023-04-24T04:28:27.359Z,100354.88
2023-04-24T04:30:56.356Z,100346.13
2023-04-24T04:33:26.314Z,100356.78
2023-04-24T04:35:54.493Z,100361.94
2023-04-24T04:38:22.403Z,100357.91
2023-04-24T04:40:50.875Z,100356.56
2023-04-24T04:43:18.774Z,100355.13
2023-04-24T04:45:46.764Z,100359.56
2023-04-24T04:48:15.268Z,100356.88
2023-04-24T04:50:44.582Z,100325.63
2023-04-24T04:53:13.385Z,100359.59
2023-04-24T04:55:41.414Z,100353.00
2023-04-24T04:58:09.368Z,100359.66
2023-04-24T05:00:38.482Z,100362.91
2023-04-24T05:03:20.045Z,100364.44
2023-04-24T05:05:50.476Z,100355.38
2023-04-24T05:08:26.391Z,100341.31
2023-04-24T05:10:54.913Z,100329.94
2023-04-24T05:13:35.611Z,100363.69
2023-04-24T05:16:07.740Z,100358.47
2023-04-24T05:18:35.833Z,100359.19
2023-04-24T05:21:05.342Z,100358.16
2023-04-24T05:23:33.338Z,100360.75
2023-04-24T05:26:01.292Z,100353.56
2023-04-24T05:28:30.458Z,100360.28
2023-04-24T05:30:58.955Z,100356.72
2023-04-24T05:33:26.923Z,100352.69
2023-04-24T05:35:54.849Z,100356.66
2023-04-24T05:38:24.143Z,100350.72
2023-04-24T05:40:52.082Z,100354.47
2023-04-24T05:43:19.984Z,100348.09
2023-04-24T05:45:47.896Z,100352.03
2023-04-24T05:48:15.924Z,100355.41
2023-04-24T05:50:44.826Z,100343.47
2023-04-24T05:53:12.815Z,100344.31
2023-04-24T05:55:42.737Z,100338.69
2023-04-24T05:58:10.633Z,100337.63
2023-04-24T06:00:38.832Z,100334.91
2023-04-24T06:03:06.979Z,100344.47
2023-04-24T06:05:35.148Z,100343.69
2023-04-24T06:08:03.063Z,100339.78
2023-04-24T06:10:31.045Z,100340.28
2023-04-24T06:13:01.621Z,100346.94
2023-04-24T06:15:31.378Z,100342.94
2023-04-24T06:17:59.873Z,100343.56
2023-04-24T06:20:28.387Z,100345.03
2023-04-24T06:22:56.398Z,100342.19
2023-04-24T06:25:24.403Z,100342.44
2023-04-24T06:27:52.376Z,100343.28
2023-04-24T06:30:21.680Z,100342.78
2023-04-24T06:32:49.653Z,100354.44
2023-04-24T06:35:17.732Z,100357.25
2023-04-24T06:37:45.918Z,100356.25
2023-04-24T06:40:14.046Z,100357.69
2023-04-24T06:42:42.004Z,100348.69
2023-04-24T06:45:10.311Z,100346.78
2023-04-24T06:47:40.078Z,100353.94
2023-04-24T06:50:09.395Z,100350.69
2023-04-24T06:52:37.723Z,100352.25
2023-04-24T06:55:06.858Z,100349.19
2023-04-24T06:57:34.754Z,100355.94
2023-04-24T07:00:02.982Z,100361.78
2023-04-24T07:02:31.021Z,100351.28
2023-04-24T07:05:00.379Z,100350.66
2023-04-24T07:07:28.664Z,100343.91
2023-04-24T07:09:57.398Z,100354.19
2023-04-24T07:12:25.321Z,100348.78
2023-04-24T07:14:53.288Z,100348.63
2023-04-24T07:17:21.230Z,100351.53
2023-04-24T07:19:49.145Z,100355.50
2023-04-24T07:22:18.778Z,100350.41
2023-04-24T07:24:46.866Z,100354.69
2023-04-24T07:27:16.024Z,100347.56
2023-04-24T07:29:44.847Z,100352.06
2023-04-24T07:32:13.221Z,100356.69
2023-04-24T07:34:41.567Z,100360.31
2023-04-24T07:37:09.547Z,100351.84
2023-04-24T07:39:38.853Z,100345.53
2023-04-24T07:42:06.858Z,100350.63
2023-04-24T07:44:34.771Z,100345.94
2023-04-24T07:47:02.709Z,100349.59
2023-04-24T07:49:30.641Z,100342.28
2023-04-24T07:51:58.568Z,100345.88
2023-04-24T07:54:26.505Z,100346.31
2023-04-24T07:56:55.776Z,100348.88
2023-04-24T07:59:23.692Z,100353.31
2023-04-24T08:01:51.872Z,100340.94
2023-04-24T08:04:20.118Z,100342.00
2023-04-24T08:06:49.742Z,100342.72
2023-04-24T08:09:17.795Z,100342.81
2023-04-24T08:11:46.116Z,100329.91
2023-04-24T08:14:16.051Z,100337.22
2023-04-24T08:16:44.466Z,100331.63
2023-04-24T08:19:12.581Z,100334.47
2023-04-24T08:21:40.649Z,100333.09
2023-04-24T08:24:09.536Z,100324.28
2023-04-24T08:26:37.532Z,100323.03
2023-04-24T08:29:05.507Z,100331.03
2023-04-24T08:31:35.050Z,100329.50
2023-04-24T08:34:03.256Z,100327.16
2023-04-24T08:36:43.582Z,100326.56
2023-04-24T08:39:15.364Z,100329.91
2023-04-24T08:41:46.449Z,100325.97
2023-04-24T08:44:17.148Z,100316.91
2023-04-24T08:46:48.618Z,100307.03
2023-04-24T08:49:17.771Z,100312.94
2023-04-24T08:51:48.053Z,100297.22
2023-04-24T08:54:16.054Z,100306.69
2023-04-24T08:56:46.886Z,100310.66
2023-04-24T08:59:16.361Z,100307.97
2023-04-24T09:01:47.505Z,100302.94
2023-04-24T09:04:19.165Z,100305.91
2023-04-24T09:06:47.716Z,100275.47
2023-04-24T09:09:17.230Z,100292.69
2023-04-24T09:11:45.520Z,100286.44
2023-04-24T09:14:13.736Z,100291.25
2023-04-24T09:16:42.225Z,100291.66
2023-04-24T09:19:11.702Z,100289.06
2023-04-24T09:21:39.861Z,100284.59
2023-04-24T09:24:10.895Z,100282.91
2023-04-24T09:26:39.036Z,100276.06
2023-04-24T09:29:06.962Z,100286.81
2023-04-24T09:31:35.054Z,100280.41
2023-04-24T09:34:08.235Z,100278.09
2023-04-24T09:36:39.514Z,100267.22
2023-04-24T09:39:09.414Z,100266.75
2023-04-24T09:41:38.103Z,100258.91
2023-04-24T09:44:14.312Z,100267.88
2023-04-24T09:46:43.768Z,100261.19
2023-04-24T09:49:14.377Z,100266.72
2023-04-24T09:51:44.149Z,100262.41
2023-04-24T09:54:21.052Z,100263.53
2023-04-24T09:56:51.132Z,100252.13
2023-04-24T09:59:20.792Z,100256.44
2023-04-24T10:01:50.444Z,100257.47
2023-04-24T10:04:20.575Z,100244.75
2023-04-24T10:06:51.418Z,100253.69
2023-04-24T10:09:21.023Z,100252.19
2023-04-24T10:11:50.931Z,100248.50
2023-04-24T10:14:21.720Z,100235.00
2023-04-24T10:16:50.518Z,100223.34
2023-04-24T10:19:20.204Z,100235.47
2023-04-24T10:21:49.688Z,100229.91
2023-04-24T10:24:19.006Z,100230.69
2023-04-24T10:26:49.656Z,100212.81
2023-04-24T10:29:22.546Z,100229.34
2023-04-24T10:31:50.664Z,100227.94
2023-04-24T10:34:23.059Z,100190.50
2023-04-24T10:36:57.767Z,100217.66
2023-04-24T10:39:27.875Z,100224.50
2023-04-24T10:41:58.595Z,100213.78
2023-04-24T10:44:27.897Z,100207.69
2023-04-24T10:46:57.731Z,100219.91
2023-04-24T10:49:31.971Z,100214.03
2023-04-24T10:52:06.553Z,100218.28
2023-04-24T10:54:39.095Z,100220.38
2023-04-24T10:57:30.546Z,100215.25
2023-04-24T11:00:20.707Z,100218.72
2023-04-24T11:02:54.233Z,100208.56
2023-04-24T11:05:23.204Z,100196.50
2023-04-24T11:08:15.485Z,100210.28
2023-04-24T11:10:46.701Z,100207.84
2023-04-24T11:13:18.101Z,100189.06
2023-04-24T11:15:46.146Z,100206.97
2023-04-24T11:18:17.950Z,100197.50
2023-04-24T11:20:46.631Z,100190.22
2023-04-24T11:23:17.139Z,100159.50
2023-04-24T11:25:45.233Z,100195.50
2023-04-24T11:28:18.085Z,100160.97
2023-04-24T11:30:46.028Z,100181.59
2023-04-24T11:33:22.191Z,100184.28
2023-04-24T11:35:50.662Z,100184.56
2023-04-24T11:38:24.659Z,100177.47
2023-04-24T11:40:54.356Z,100185.97
2023-04-24T11:43:23.345Z,100172.97
2023-04-24T11:45:52.172Z,100180.34
2023-04-24T11:48:23.364Z,100171.81
2023-04-24T11:50:51.768Z,100175.94
2023-04-24T11:53:23.018Z,100171.81
2023-04-24T11:55:51.078Z,100169.09
2023-04-24T11:58:23.251Z,100161.44
2023-04-24T12:00:58.656Z,100150.31
2023-04-24T12:03:26.709Z,100149.47
2023-04-24T12:05:55.258Z,100154.69
2023-04-24T12:08:31.249Z,100143.94
2023-04-24T12:11:00.415Z,100136.19
2023-04-24T12:13:28.629Z,100145.47
2023-04-24T12:15:56.942Z,100139.25
2023-04-24T12:18:25.964Z,100125.91
2023-04-24T12:20:54.526Z,100131.94
2023-04-24T12:23:37.585Z,100136.28
2023-04-24T12:26:06.315Z,100121.50
2023-04-24T12:28:38.373Z,100120.13
2023-04-24T12:31:06.897Z,100126.56
2023-04-24T12:33:35.600Z,100114.19
2023-04-24T12:36:03.993Z,100110.19
2023-04-24T12:38:32.182Z,100116.38
2023-04-24T12:41:09.101Z,100108.00
2023-04-24T12:43:37.744Z,100114.06
2023-04-24T12:46:06.197Z,100115.03
2023-04-24T12:48:34.889Z,100107.09
2023-04-24T12:51:02.926Z,100095.63
2023-04-24T12:53:32.452Z,100101.59
2023-04-24T12:56:00.475Z,100095.47
2023-04-24T12:58:29.987Z,100099.28
2023-04-24T13:00:57.989Z,100093.69
2023-04-24T13:03:26.848Z,100064.53
2023-04-24T13:05:54.817Z,100085.91
2023-04-24T13:08:22.764Z,100090.13
2023-04-24T13:10:52.093Z,100081.03
2023-04-24T13:13:20.076Z,100087.63
2023-04-24T13:15:49.372Z,100080.88
2023-04-24T13:18:17.273Z,100080.44
2023-04-24T13:20:45.214Z,100073.03
2023-04-24T13:23:13.308Z,100071.44
2023-04-24T13:25:41.351Z,100074.38
2023-04-24T13:28:09.378Z,100065.25
2023-04-24T13:30:37.505Z,100071.50
2023-04-24T13:33:06.978Z,100068.13
2023-04-24T13:35:34.936Z,100067.56
2023-04-24T13:38:06.960Z,100055.41
2023-04-24T13:40:35.365Z,100061.72
2023-04-24T13:43:03.817Z,100059.97
2023-04-24T13:45:31.752Z,100063.78
2023-04-24T13:47:59.812Z,100059.47
2023-04-24T13:50:29.168Z,100058.78
2023-04-24T13:52:57.868Z,100054.06
2023-04-24T13:55:25.825Z,100052.56
2023-04-24T13:57:56.080Z,100048.81
2023-04-24T14:00:24.640Z,100034.56
2023-04-24T14:02:52.783Z,100044.06
2023-04-24T14:05:22.756Z,100047.06
2023-04-24T14:07:52.671Z,100046.72
2023-04-24T14:10:20.676Z,100035.78
2023-04-24T14:12:48.672Z,100029.34
2023-04-24T14:15:16.720Z,100034.34
2023-04-24T14:17:44.709Z,100046.94
2023-04-24T14:20:14.343Z,100041.59
2023-04-24T14:22:42.256Z,100035.81
2023-04-24T14:25:11.856Z,100028.84
2023-04-24T14:27:41.116Z,100034.19
2023-04-24T14:30:10.281Z,100031.00
2023-04-24T14:32:38.238Z,100022.94
2023-04-24T14:35:07.212Z,100027.75
2023-04-24T14:37:35.348Z,100025.00
2023-04-24T14:40:29.418Z,100015.09
2023-04-24T14:42:54.415Z,100021.28
2023-04-24T14:45:22.314Z,100018.06
2023-04-24T14:47:50.246Z,100017.13
2023-04-24T14:50:18.187Z,100015.50
2023-04-24T14:52:46.156Z,100022.09
2023-04-24T14:55:14.604Z,100014.94
2023-04-24T14:57:42.828Z,100018.78
2023-04-24T15:00:13.372Z,100013.56
2023-04-24T15:02:43.113Z,100016.41
2023-04-24T15:05:11.720Z,100000.41
2023-04-24T15:07:40.233Z,100015.16
2023-04-24T15:10:09.280Z,100007.00
2023-04-24T15:12:37.511Z,99995.53
2023-04-24T15:15:07.938Z,99996.25
2023-04-24T15:17:37.353Z,100004.81
2023-04-24T15:20:07.394Z,99999.16
2023-04-24T15:22:35.588Z,99996.88
2023-04-24T15:25:03.807Z,100001.53
2023-04-24T15:27:42.190Z,99991.06
2023-04-24T15:30:11.562Z,99993.31
2023-04-24T15:32:41.054Z,99983.47
2023-04-24T15:35:10.578Z,99988.03
2023-04-24T15:37:38.988Z,99976.09
2023-04-24T15:40:08.779Z,99978.97
2023-04-24T15:42:36.962Z,99971.94
2023-04-24T15:45:05.500Z,99976.94
2023-04-24T15:47:34.820Z,99962.84
2023-04-24T15:50:04.640Z,99945.94
2023-04-24T15:52:32.609Z,99958.25
2023-04-24T15:55:00.715Z,99964.28
2023-04-24T15:57:28.653Z,99954.72
2023-04-24T15:59:56.769Z,99953.41
2023-04-24T16:02:25.083Z,99959.19
2023-04-24T16:04:53.710Z,99959.41
2023-04-24T16:07:23.123Z,99965.50
2023-04-24T16:09:51.038Z,99959.75
2023-04-24T16:12:19.035Z,99962.38
2023-04-24T16:14:47.101Z,99958.91
2023-04-24T16:17:15.058Z,99957.88
2023-04-24T16:19:43.181Z,99955.34
2023-04-24T16:22:11.124Z,99935.66
2023-04-24T16:24:40.416Z,99943.44
2023-04-24T16:27:08.362Z,99950.34
2023-04-24T16:29:36.276Z,99946.31
2023-04-24T16:32:04.280Z,99948.41
2023-04-24T16:34:32.186Z,99936.56
2023-04-24T16:37:00.671Z,99941.81
2023-04-24T16:39:28.767Z,99940.50
2023-04-24T16:41:59.768Z,99942.66
2023-04-24T16:44:28.253Z,99933.94
2023-04-24T16:46:56.938Z,99942.63
2023-04-24T16:49:25.116Z,99939.00
2023-04-24T16:51:53.096Z,99941.28
2023-04-24T16:54:21.023Z,99934.53
2023-04-24T16:56:48.981Z,99944.78
2023-04-24T16:59:18.276Z,99931.91
2023-04-24T17:01:46.224Z,99941.22
2023-04-24T17:04:14.290Z,99948.00
2023-04-24T17:06:42.327Z,99948.50
2023-04-24T17:09:12.195Z,99950.59
2023-04-24T17:11:40.205Z,99951.41
2023-04-24T17:14:08.121Z,99942.53
2023-04-24T17:16:38.520Z,99956.75
2023-04-24T17:19:06.991Z,99962.28
2023-04-24T17:21:35.054Z,99950.66
2023-04-24T17:24:03.097Z,99945.28
2023-04-24T17:26:32.385Z,99945.28
2023-04-24T17:29:00.443Z,99934.19
2023-04-24T17:31:28.394Z,99954.44
2023-04-24T17:33:57.979Z,99963.97
2023-04-24T17:36:25.934Z,99965.22
2023-04-24T17:38:53.899Z,99972.66
2023-04-24T17:41:21.817Z,99972.13
2023-04-24T17:43:49.759Z,99977.19
2023-04-24T17:46:17.772Z,99977.63
2023-04-24T17:48:47.591Z,99980.50
2023-04-24T17:51:18.275Z,99977.38
2023-04-24T17:53:46.189Z,99976.72
2023-04-24T17:56:14.141Z,99979.53
2023-04-24T17:58:42.101Z,99987.91
2023-04-24T18:01:10.072Z,99985.28
2023-04-24T18:03:38.524Z,99989.50
2023-04-24T18:06:07.429Z,99991.50
2023-04-24T18:08:36.795Z,99977.53
2023-04-24T18:11:04.798Z,99989.00
2023-04-24T18:13:32.781Z,99986.72
2023-04-24T18:16:00.778Z,99979.56
2023-04-24T18:18:28.703Z,99995.72
2023-04-24T18:20:56.747Z,100003.78
2023-04-24T18:23:24.685Z,100008.75
2023-04-24T18:25:54.017Z,100010.09
2023-04-24T18:28:21.930Z,100008.25
2023-04-24T18:30:49.861Z,100021.75
2023-04-24T18:33:19.085Z,100024.78
2023-04-24T18:35:47.032Z,100025.25
2023-04-24T18:38:14.974Z,100025.72
2023-04-24T18:40:43.403Z,100029.41
2023-04-24T18:43:12.726Z,100017.94
2023-04-24T18:45:40.638Z,100017.38
2023-04-24T18:48:08.685Z,100014.72
2023-04-24T18:50:38.928Z,99997.38
2023-04-24T18:53:07.268Z,100003.38
2023-04-24T18:55:36.006Z,100010.09
2023-04-24T18:58:03.987Z,100002.75
2023-04-24T19:00:33.433Z,100008.97
2023-04-24T19:03:01.613Z,100002.75
2023-04-24T19:05:29.560Z,100000.56
2023-04-24T19:07:57.450Z,99996.13
2023-04-24T19:10:25.469Z,99996.47
2023-04-24T19:12:56.644Z,99983.44
2023-04-24T19:15:25.043Z,99984.13
2023-04-24T19:17:54.360Z,99981.41
2023-04-24T19:20:22.402Z,99982.56
2023-04-24T19:22:50.366Z,99984.75
2023-04-24T19:25:18.415Z,99982.97
2023-04-24T19:27:46.368Z,99987.63
2023-04-24T19:30:14.636Z,99982.72
2023-04-24T19:32:42.543Z,99987.38
2023-04-24T19:35:11.927Z,99988.28
2023-04-24T19:37:40.121Z,99988.81
2023-04-24T19:40:09.482Z,99991.59
2023-04-24T19:45:11.161Z,99989.09
2023-04-24T19:47:39.160Z,99992.31
2023-04-24T19:50:08.554Z,99997.13
2023-04-24T19:52:37.834Z,99992.00
2023-04-24T19:55:06.178Z,99995.47
2023-04-24T19:57:34.106Z,99990.50
2023-04-24T20:00:02.048Z,99991.75
2023-04-24T20:02:30.025Z,99994.88
2023-04-24T20:04:58.090Z,99988.56
2023-04-24T20:07:26.355Z,99994.06
2023-04-24T20:09:55.674Z,99990.81
2023-04-24T20:12:23.772Z,99995.22
2023-04-24T20:14:51.880Z,99994.38
2023-04-24T20:17:19.987Z,99999.63
2023-04-24T20:19:47.996Z,100000.00
2023-04-24T20:22:16.109Z,99978.09
2023-04-24T20:24:44.584Z,100004.56
2023-04-24T20:27:14.608Z,100021.09
2023-04-24T20:29:42.742Z,100017.50
2023-04-24T20:32:10.867Z,100020.69
2023-04-24T20:34:38.845Z,100012.56
2023-04-24T20:37:06.800Z,100031.03
2023-04-24T20:39:34.743Z,100038.44
2023-04-24T20:42:02.708Z,100022.47
2023-04-24T20:44:32.055Z,100028.81
2023-04-24T20:47:00.089Z,100017.19
2023-04-24T20:49:28.270Z,100022.16
2023-04-24T20:51:56.344Z,100014.41
2023-04-24T20:54:24.245Z,100013.34
2023-04-24T20:56:52.289Z,100014.41
2023-04-24T20:59:20.216Z,100010.16
2023-04-24T21:01:50.769Z,100006.19
2023-04-24T21:04:18.826Z,100002.28
2023-04-24T21:06:47.825Z,100003.94
2023-04-24T21:09:15.755Z,100000.03
2023-04-24T21:11:43.724Z,99993.59
2023-04-24T21:14:11.679Z,99990.72
2023-04-24T21:16:39.675Z,99983.47
2023-04-24T21:19:08.975Z,99990.13
2023-04-24T21:21:36.936Z,99992.25
2023-04-24T21:24:05.170Z,99986.81
2023-04-24T21:26:33.376Z,99968.25
2023-04-24T21:29:01.312Z,99987.41
2023-04-24T21:31:29.310Z,99978.25
2023-04-24T21:33:57.226Z,99986.56
2023-04-24T21:36:26.869Z,99991.66
2023-04-24T21:38:55.446Z,99988.47
2023-04-24T21:41:24.728Z,99979.09
2023-04-24T21:43:52.956Z,99987.66
2023-04-24T21:46:21.214Z,99985.72
2023-04-24T21:48:49.165Z,99985.19
2023-04-24T21:51:18.100Z,99978.03
2023-04-24T21:53:47.699Z,99987.16
2023-04-24T21:56:15.808Z,99992.41
2023-04-24T21:58:44.018Z,99970.88
2023-04-24T22:01:12.168Z,99979.44
2023-04-24T22:03:40.245Z,99979.00
2023-04-24T22:06:08.459Z,99966.75
2023-04-24T22:08:36.483Z,99980.28
2023-04-24T22:11:13.559Z,99976.97
2023-04-24T22:13:48.371Z,99960.44
2023-04-24T22:16:17.047Z,99974.66
2023-04-24T22:18:47.571Z,99967.63
2023-04-24T22:21:16.092Z,99962.81
2023-04-24T22:23:44.026Z,99959.09
2023-04-24T22:26:13.505Z,99953.59
2023-04-24T22:28:41.400Z,99950.28
2023-04-24T22:31:09.679Z,99947.09
2023-04-24T22:33:37.721Z,99937.31
2023-04-24T22:36:05.978Z,99931.78
2023-04-24T22:38:34.028Z,99931.53
2023-04-24T22:41:02.300Z,99920.78
2023-04-24T22:43:31.862Z,99918.22
2023-04-24T22:45:59.763Z,99924.75
2023-04-24T22:48:27.691Z,99925.84
2023-04-24T22:50:56.097Z,99928.78
2023-04-24T22:53:24.247Z,99919.69
2023-04-24T22:55:52.250Z,99921.06
2023-04-24T22:58:20.370Z,99917.03
2023-04-24T23:00:49.704Z,99919.41
2023-04-24T23:03:17.838Z,99911.56
2023-04-24T23:05:45.854Z,99904.28
2023-04-24T23:08:13.810Z,99903.44
2023-04-24T23:10:42.192Z,99902.03
2023-04-24T23:13:10.115Z,99896.00
2023-04-24T23:15:39.442Z,99896.81
2023-04-24T23:18:08.799Z,99893.31
2023-04-24T23:20:37.599Z,99876.84
2023-04-24T23:23:05.684Z,99894.75
2023-04-24T23:25:33.953Z,99884.69
2023-04-24T23:28:01.839Z,99884.97
2023-04-24T23:30:29.918Z,99890.38
2023-04-24T23:32:57.938Z,99883.16
2023-04-24T23:35:27.376Z,99889.53
2023-04-24T23:37:56.258Z,99891.72
2023-04-24T23:40:24.425Z,99881.69
2023-04-24T23:43:05.658Z,99896.81
2023-04-24T23:45:35.704Z,99905.75
2023-04-24T23:48:04.209Z,99902.59
2023-04-24T23:50:33.619Z,99909.31
2023-04-24T23:53:01.676Z,99905.53
2023-04-24T23:55:29.652Z,99894.75
2023-04-24T23:57:57.601Z,99902.59
